sensor_id;sensor_type;location;lat;lon;timestamp;temperature;humidity
42037;DHT22;75222;52.004;5.908;2024-01-11T00:00:32;-2.00;64.30
42037;DHT22;75222;52.004;5.908;2024-01-11T00:02:57;-2.10;64.30
42037;DHT22;75222;52.004;5.908;2024-01-11T00:05:23;-2.00;64.40
42037;DHT22;75222;52.004;5.908;2024-01-11T00:07:48;-2.10;64.30
42037;DHT22;75222;52.004;5.908;2024-01-11T00:10:17;-2.10;64.40
42037;DHT22;75222;52.004;5.908;2024-01-11T00:12:43;-2.10;64.60
42037;DHT22;75222;52.004;5.908;2024-01-11T00:15:08;-2.20;64.50
42037;DHT22;75222;52.004;5.908;2024-01-11T00:17:34;-2.20;64.60
42037;DHT22;75222;52.004;5.908;2024-01-11T00:20:00;-2.20;64.70
42037;DHT22;75222;52.004;5.908;2024-01-11T00:22:26;-2.20;64.80
42037;DHT22;75222;52.004;5.908;2024-01-11T00:24:51;-2.20;64.80
42037;DHT22;75222;52.004;5.908;2024-01-11T00:27:17;-2.20;64.80
42037;DHT22;75222;52.004;5.908;2024-01-11T00:29:42;-2.30;64.80
42037;DHT22;75222;52.004;5.908;2024-01-11T00:32:08;-2.30;64.90
42037;DHT22;75222;52.004;5.908;2024-01-11T00:34:33;-2.30;65.00
42037;DHT22;75222;52.004;5.908;2024-01-11T00:37:01;-2.40;65.00
42037;DHT22;75222;52.004;5.908;2024-01-11T00:39:26;-2.40;65.10
42037;DHT22;75222;52.004;5.908;2024-01-11T00:41:52;-2.40;65.20
42037;DHT22;75222;52.004;5.908;2024-01-11T00:44:17;-2.50;65.10
42037;DHT22;75222;52.004;5.908;2024-01-11T00:46:43;-2.50;65.20
42037;DHT22;75222;52.004;5.908;2024-01-11T00:49:08;-2.50;65.30
42037;DHT22;75222;52.004;5.908;2024-01-11T00:51:34;-2.50;65.40
42037;DHT22;75222;52.004;5.908;2024-01-11T00:54:00;-2.50;65.50
42037;DHT22;75222;52.004;5.908;2024-01-11T00:56:25;-2.50;65.50
42037;DHT22;75222;52.004;5.908;2024-01-11T00:58:51;-2.60;65.50
42037;DHT22;75222;52.004;5.908;2024-01-11T01:01:17;-2.60;65.50
42037;DHT22;75222;52.004;5.908;2024-01-11T01:03:43;-2.60;65.60
42037;DHT22;75222;52.004;5.908;2024-01-11T01:06:08;-2.60;65.60
42037;DHT22;75222;52.004;5.908;2024-01-11T01:08:34;-2.60;65.60
42037;DHT22;75222;52.004;5.908;2024-01-11T01:10:59;-2.60;65.60
42037;DHT22;75222;52.004;5.908;2024-01-11T01:13:25;-2.60;65.70
42037;DHT22;75222;52.004;5.908;2024-01-11T01:15:51;-2.60;65.80
42037;DHT22;75222;52.004;5.908;2024-01-11T01:18:16;-2.60;65.70
42037;DHT22;75222;52.004;5.908;2024-01-11T01:20:42;-2.60;65.80
42037;DHT22;75222;52.004;5.908;2024-01-11T01:23:07;-2.60;65.80
42037;DHT22;75222;52.004;5.908;2024-01-11T01:25:33;-2.60;65.90
42037;DHT22;75222;52.004;5.908;2024-01-11T01:27:58;-2.60;66.00
42037;DHT22;75222;52.004;5.908;2024-01-11T01:30:26;-2.70;66.00
42037;DHT22;75222;52.004;5.908;2024-01-11T01:32:52;-2.60;66.00
42037;DHT22;75222;52.004;5.908;2024-01-11T01:35:18;-2.70;66.00
42037;DHT22;75222;52.004;5.908;2024-01-11T01:37:43;-2.70;66.00
42037;DHT22;75222;52.004;5.908;2024-01-11T01:40:09;-2.70;66.10
42037;DHT22;75222;52.004;5.908;2024-01-11T01:42:35;-2.70;66.20
42037;DHT22;75222;52.004;5.908;2024-01-11T01:45:00;-2.80;66.30
42037;DHT22;75222;52.004;5.908;2024-01-11T01:47:27;-2.80;66.30
42037;DHT22;75222;52.004;5.908;2024-01-11T01:49:53;-2.80;66.40
42037;DHT22;75222;52.004;5.908;2024-01-11T01:52:20;-2.80;66.50
42037;DHT22;75222;52.004;5.908;2024-01-11T01:54:47;-2.90;66.50
42037;DHT22;75222;52.004;5.908;2024-01-11T01:57:14;-2.90;66.60
42037;DHT22;75222;52.004;5.908;2024-01-11T01:59:42;-2.90;66.70
42037;DHT22;75222;52.004;5.908;2024-01-11T02:02:09;-3.00;66.70
42037;DHT22;75222;52.004;5.908;2024-01-11T02:04:36;-3.00;66.80
42037;DHT22;75222;52.004;5.908;2024-01-11T02:07:02;-3.10;66.90
42037;DHT22;75222;52.004;5.908;2024-01-11T02:09:28;-3.10;67.00
42037;DHT22;75222;52.004;5.908;2024-01-11T02:11:54;-3.10;67.00
42037;DHT22;75222;52.004;5.908;2024-01-11T02:14:20;-3.10;67.10
42037;DHT22;75222;52.004;5.908;2024-01-11T02:16:45;-3.20;67.10
42037;DHT22;75222;52.004;5.908;2024-01-11T02:19:16;-3.20;67.20
42037;DHT22;75222;52.004;5.908;2024-01-11T02:21:42;-3.30;67.30
42037;DHT22;75222;52.004;5.908;2024-01-11T02:24:09;-3.30;67.40
42037;DHT22;75222;52.004;5.908;2024-01-11T02:26:35;-3.30;67.60
42037;DHT22;75222;52.004;5.908;2024-01-11T02:29:01;-3.40;67.60
42037;DHT22;75222;52.004;5.908;2024-01-11T02:31:27;-3.40;67.70
42037;DHT22;75222;52.004;5.908;2024-01-11T02:33:54;-3.40;67.80
42037;DHT22;75222;52.004;5.908;2024-01-11T02:36:22;-3.40;67.90
42037;DHT22;75222;52.004;5.908;2024-01-11T02:38:48;-3.40;68.00
42037;DHT22;75222;52.004;5.908;2024-01-11T02:41:16;-3.40;68.10
42037;DHT22;75222;52.004;5.908;2024-01-11T02:43:48;-3.30;68.10
42037;DHT22;75222;52.004;5.908;2024-01-11T02:46:14;-3.30;68.10
42037;DHT22;75222;52.004;5.908;2024-01-11T02:48:40;-3.30;68.10
42037;DHT22;75222;52.004;5.908;2024-01-11T02:51:06;-3.30;68.10
42037;DHT22;75222;52.004;5.908;2024-01-11T02:53:31;-3.30;68.10
42037;DHT22;75222;52.004;5.908;2024-01-11T02:56:00;-3.30;68.10
42037;DHT22;75222;52.004;5.908;2024-01-11T02:58:25;-3.30;68.10
42037;DHT22;75222;52.004;5.908;2024-01-11T03:00:51;-3.20;68.20
42037;DHT22;75222;52.004;5.908;2024-01-11T03:03:16;-3.20;68.20
42037;DHT22;75222;52.004;5.908;2024-01-11T03:05:42;-3.20;68.20
42037;DHT22;75222;52.004;5.908;2024-01-11T03:08:07;-3.20;68.20
42037;DHT22;75222;52.004;5.908;2024-01-11T03:10:33;-3.20;68.20
42037;DHT22;75222;52.004;5.908;2024-01-11T03:12:59;-3.20;68.30
42037;DHT22;75222;52.004;5.908;2024-01-11T03:15:25;-3.20;68.40
42037;DHT22;75222;52.004;5.908;2024-01-11T03:17:51;-3.20;68.40
42037;DHT22;75222;52.004;5.908;2024-01-11T03:20:16;-3.20;68.40
42037;DHT22;75222;52.004;5.908;2024-01-11T03:22:46;-3.30;68.40
42037;DHT22;75222;52.004;5.908;2024-01-11T03:25:12;-3.30;68.60
42037;DHT22;75222;52.004;5.908;2024-01-11T03:27:37;-3.40;69.30
42037;DHT22;75222;52.004;5.908;2024-01-11T03:30:03;-3.40;68.90
42037;DHT22;75222;52.004;5.908;2024-01-11T03:32:29;-3.50;68.90
42037;DHT22;75222;52.004;5.908;2024-01-11T03:34:55;-3.60;69.00
42037;DHT22;75222;52.004;5.908;2024-01-11T03:37:21;-3.50;69.20
42037;DHT22;75222;52.004;5.908;2024-01-11T03:39:46;-3.50;69.20
42037;DHT22;75222;52.004;5.908;2024-01-11T03:42:12;-3.60;69.20
42037;DHT22;75222;52.004;5.908;2024-01-11T03:44:37;-3.50;69.40
42037;DHT22;75222;52.004;5.908;2024-01-11T03:47:03;-3.60;69.30
42037;DHT22;75222;52.004;5.908;2024-01-11T03:49:29;-3.60;69.40
42037;DHT22;75222;52.004;5.908;2024-01-11T03:51:54;-3.50;69.50
42037;DHT22;75222;52.004;5.908;2024-01-11T03:54:20;-3.50;69.60
42037;DHT22;75222;52.004;5.908;2024-01-11T03:56:46;-3.50;69.50
42037;DHT22;75222;52.004;5.908;2024-01-11T03:59:11;-3.50;69.50
42037;DHT22;75222;52.004;5.908;2024-01-11T04:01:43;-3.50;69.50
42037;DHT22;75222;52.004;5.908;2024-01-11T04:04:08;-3.60;69.50
42037;DHT22;75222;52.004;5.908;2024-01-11T04:06:34;-3.60;69.60
42037;DHT22;75222;52.004;5.908;2024-01-11T04:09:00;-3.60;69.80
42037;DHT22;75222;52.004;5.908;2024-01-11T04:11:29;-3.70;69.80
42037;DHT22;75222;52.004;5.908;2024-01-11T04:13:55;-3.60;70.00
42037;DHT22;75222;52.004;5.908;2024-01-11T04:16:21;-3.70;70.10
42037;DHT22;75222;52.004;5.908;2024-01-11T04:18:46;-3.70;70.10
42037;DHT22;75222;52.004;5.908;2024-01-11T04:21:25;-3.70;70.20
42037;DHT22;75222;52.004;5.908;2024-01-11T04:23:54;-3.70;70.30
42037;DHT22;75222;52.004;5.908;2024-01-11T04:26:20;-3.80;70.20
42037;DHT22;75222;52.004;5.908;2024-01-11T04:28:46;-3.80;70.30
42037;DHT22;75222;52.004;5.908;2024-01-11T04:31:13;-3.80;70.40
42037;DHT22;75222;52.004;5.908;2024-01-11T04:33:42;-3.90;70.50
42037;DHT22;75222;52.004;5.908;2024-01-11T04:36:08;-3.90;70.60
42037;DHT22;75222;52.004;5.908;2024-01-11T04:38:34;-3.90;70.70
42037;DHT22;75222;52.004;5.908;2024-01-11T04:41:00;-3.90;70.80
42037;DHT22;75222;52.004;5.908;2024-01-11T04:43:25;-3.90;71.00
42037;DHT22;75222;52.004;5.908;2024-01-11T04:45:51;-3.90;71.00
42037;DHT22;75222;52.004;5.908;2024-01-11T04:48:17;-3.90;71.20
42037;DHT22;75222;52.004;5.908;2024-01-11T04:50:44;-4.00;71.10
42037;DHT22;75222;52.004;5.908;2024-01-11T04:53:09;-4.00;71.20
42037;DHT22;75222;52.004;5.908;2024-01-11T04:55:35;-4.00;71.30
42037;DHT22;75222;52.004;5.908;2024-01-11T04:58:00;-4.00;71.30
42037;DHT22;75222;52.004;5.908;2024-01-11T05:00:26;-3.90;71.40
42037;DHT22;75222;52.004;5.908;2024-01-11T05:02:51;-3.90;71.20
42037;DHT22;75222;52.004;5.908;2024-01-11T05:05:17;-3.90;71.30
42037;DHT22;75222;52.004;5.908;2024-01-11T05:07:43;-3.90;71.30
42037;DHT22;75222;52.004;5.908;2024-01-11T05:10:08;-3.90;71.40
42037;DHT22;75222;52.004;5.908;2024-01-11T05:12:34;-3.90;71.40
42037;DHT22;75222;52.004;5.908;2024-01-11T05:15:00;-4.00;71.40
42037;DHT22;75222;52.004;5.908;2024-01-11T05:17:26;-4.00;71.50
42037;DHT22;75222;52.004;5.908;2024-01-11T05:19:52;-4.00;71.70
42037;DHT22;75222;52.004;5.908;2024-01-11T05:22:18;-4.00;71.80
42037;DHT22;75222;52.004;5.908;2024-01-11T05:24:43;-4.00;71.80
42037;DHT22;75222;52.004;5.908;2024-01-11T05:27:09;-4.00;71.90
42037;DHT22;75222;52.004;5.908;2024-01-11T05:29:34;-4.00;72.00
42037;DHT22;75222;52.004;5.908;2024-01-11T05:32:00;-4.00;72.00
42037;DHT22;75222;52.004;5.908;2024-01-11T05:34:26;-4.00;72.00
42037;DHT22;75222;52.004;5.908;2024-01-11T05:36:51;-4.00;72.00
42037;DHT22;75222;52.004;5.908;2024-01-11T05:39:17;-4.00;72.00
42037;DHT22;75222;52.004;5.908;2024-01-11T05:41:45;-3.90;72.00
42037;DHT22;75222;52.004;5.908;2024-01-11T05:44:11;-3.90;71.90
42037;DHT22;75222;52.004;5.908;2024-01-11T05:46:37;-3.90;71.90
42037;DHT22;75222;52.004;5.908;2024-01-11T05:49:02;-4.00;71.90
42037;DHT22;75222;52.004;5.908;2024-01-11T05:51:29;-4.00;72.00
42037;DHT22;75222;52.004;5.908;2024-01-11T05:53:54;-3.90;72.20
42037;DHT22;75222;52.004;5.908;2024-01-11T05:56:20;-3.90;72.30
42037;DHT22;75222;52.004;5.908;2024-01-11T05:58:46;-3.90;72.30
42037;DHT22;75222;52.004;5.908;2024-01-11T06:01:12;-3.90;72.30
42037;DHT22;75222;52.004;5.908;2024-01-11T06:03:37;-3.80;72.20
42037;DHT22;75222;52.004;5.908;2024-01-11T06:06:04;-3.80;72.10
42037;DHT22;75222;52.004;5.908;2024-01-11T06:08:30;-3.80;72.10
42037;DHT22;75222;52.004;5.908;2024-01-11T06:10:56;-3.70;72.10
42037;DHT22;75222;52.004;5.908;2024-01-11T06:13:22;-3.70;72.10
42037;DHT22;75222;52.004;5.908;2024-01-11T06:15:48;-3.70;72.10
42037;DHT22;75222;52.004;5.908;2024-01-11T06:18:13;-3.70;72.20
42037;DHT22;75222;52.004;5.908;2024-01-11T06:20:39;-3.70;72.10
42037;DHT22;75222;52.004;5.908;2024-01-11T06:23:04;-3.70;72.10
42037;DHT22;75222;52.004;5.908;2024-01-11T06:25:30;-3.80;72.10
42037;DHT22;75222;52.004;5.908;2024-01-11T06:27:55;-3.90;72.20
42037;DHT22;75222;52.004;5.908;2024-01-11T06:30:21;-3.90;72.50
42037;DHT22;75222;52.004;5.908;2024-01-11T06:32:46;-4.00;72.50
42037;DHT22;75222;52.004;5.908;2024-01-11T06:35:12;-4.00;72.70
42037;DHT22;75222;52.004;5.908;2024-01-11T06:37:37;-4.00;72.70
42037;DHT22;75222;52.004;5.908;2024-01-11T06:40:03;-4.00;72.70
42037;DHT22;75222;52.004;5.908;2024-01-11T06:42:30;-4.00;72.70
42037;DHT22;75222;52.004;5.908;2024-01-11T06:44:57;-3.90;72.70
42037;DHT22;75222;52.004;5.908;2024-01-11T06:47:22;-3.90;72.70
42037;DHT22;75222;52.004;5.908;2024-01-11T06:49:48;-3.90;72.70
42037;DHT22;75222;52.004;5.908;2024-01-11T06:52:14;-4.00;73.30
42037;DHT22;75222;52.004;5.908;2024-01-11T06:54:40;-4.00;72.80
42037;DHT22;75222;52.004;5.908;2024-01-11T06:57:05;-4.00;72.70
42037;DHT22;75222;52.004;5.908;2024-01-11T06:59:31;-4.00;72.80
42037;DHT22;75222;52.004;5.908;2024-01-11T07:01:56;-4.00;72.80
42037;DHT22;75222;52.004;5.908;2024-01-11T07:04:22;-4.00;72.90
42037;DHT22;75222;52.004;5.908;2024-01-11T07:06:47;-4.00;72.90
42037;DHT22;75222;52.004;5.908;2024-01-11T07:09:13;-4.00;73.00
42037;DHT22;75222;52.004;5.908;2024-01-11T07:11:39;-4.00;72.90
42037;DHT22;75222;52.004;5.908;2024-01-11T07:14:05;-4.00;72.90
42037;DHT22;75222;52.004;5.908;2024-01-11T07:16:30;-4.00;72.90
42037;DHT22;75222;52.004;5.908;2024-01-11T07:18:56;-4.00;73.00
42037;DHT22;75222;52.004;5.908;2024-01-11T07:21:23;-4.10;73.00
42037;DHT22;75222;52.004;5.908;2024-01-11T07:24:00;-4.00;73.00
42037;DHT22;75222;52.004;5.908;2024-01-11T07:26:26;-4.00;73.00
42037;DHT22;75222;52.004;5.908;2024-01-11T07:28:52;-4.00;73.00
42037;DHT22;75222;52.004;5.908;2024-01-11T07:31:20;-3.90;73.00
42037;DHT22;75222;52.004;5.908;2024-01-11T07:33:45;-3.90;72.90
42037;DHT22;75222;52.004;5.908;2024-01-11T07:36:11;-3.80;72.90
42037;DHT22;75222;52.004;5.908;2024-01-11T07:38:37;-3.80;72.90
42037;DHT22;75222;52.004;5.908;2024-01-11T07:41:02;-3.70;72.90
42037;DHT22;75222;52.004;5.908;2024-01-11T07:43:28;-3.70;72.80
42037;DHT22;75222;52.004;5.908;2024-01-11T07:45:54;-3.70;72.80
42037;DHT22;75222;52.004;5.908;2024-01-11T07:48:22;-3.70;72.70
42037;DHT22;75222;52.004;5.908;2024-01-11T07:50:48;-3.80;72.70
42037;DHT22;75222;52.004;5.908;2024-01-11T07:53:14;-3.80;72.70
42037;DHT22;75222;52.004;5.908;2024-01-11T07:55:40;-3.80;72.70
42037;DHT22;75222;52.004;5.908;2024-01-11T07:58:06;-3.80;72.80
42037;DHT22;75222;52.004;5.908;2024-01-11T08:00:32;-3.80;72.80
42037;DHT22;75222;52.004;5.908;2024-01-11T08:02:57;-3.80;72.90
42037;DHT22;75222;52.004;5.908;2024-01-11T08:05:23;-3.80;72.90
42037;DHT22;75222;52.004;5.908;2024-01-11T08:07:48;-3.80;72.90
42037;DHT22;75222;52.004;5.908;2024-01-11T08:10:14;-3.80;72.80
42037;DHT22;75222;52.004;5.908;2024-01-11T08:12:39;-3.80;72.80
42037;DHT22;75222;52.004;5.908;2024-01-11T08:15:05;-3.80;72.80
42037;DHT22;75222;52.004;5.908;2024-01-11T08:17:31;-3.80;72.90
42037;DHT22;75222;52.004;5.908;2024-01-11T08:19:56;-3.80;73.00
42037;DHT22;75222;52.004;5.908;2024-01-11T08:22:23;-3.80;72.90
42037;DHT22;75222;52.004;5.908;2024-01-11T08:24:48;-3.70;73.00
42037;DHT22;75222;52.004;5.908;2024-01-11T08:27:15;-3.70;72.90
42037;DHT22;75222;52.004;5.908;2024-01-11T08:29:43;-3.60;72.90
42037;DHT22;75222;52.004;5.908;2024-01-11T08:32:09;-3.60;72.80
42037;DHT22;75222;52.004;5.908;2024-01-11T08:34:34;-3.60;72.80
42037;DHT22;75222;52.004;5.908;2024-01-11T08:37:00;-3.50;72.80
42037;DHT22;75222;52.004;5.908;2024-01-11T08:39:25;-3.60;72.70
42037;DHT22;75222;52.004;5.908;2024-01-11T08:41:51;-3.50;72.80
42037;DHT22;75222;52.004;5.908;2024-01-11T08:44:18;-3.50;72.80
42037;DHT22;75222;52.004;5.908;2024-01-11T08:46:44;-3.50;72.80
42037;DHT22;75222;52.004;5.908;2024-01-11T08:49:09;-3.50;72.80
42037;DHT22;75222;52.004;5.908;2024-01-11T08:51:35;-3.40;72.80
42037;DHT22;75222;52.004;5.908;2024-01-11T08:54:01;-3.40;72.80
42037;DHT22;75222;52.004;5.908;2024-01-11T08:56:27;-3.40;72.90
42037;DHT22;75222;52.004;5.908;2024-01-11T08:58:53;-3.40;72.90
42037;DHT22;75222;52.004;5.908;2024-01-11T09:01:19;-3.40;72.90
42037;DHT22;75222;52.004;5.908;2024-01-11T09:03:44;-3.30;73.00
42037;DHT22;75222;52.004;5.908;2024-01-11T09:06:10;-3.20;73.00
42037;DHT22;75222;52.004;5.908;2024-01-11T09:08:36;-3.20;73.00
42037;DHT22;75222;52.004;5.908;2024-01-11T09:11:02;-3.10;72.90
42037;DHT22;75222;52.004;5.908;2024-01-11T09:13:28;-3.10;72.90
42037;DHT22;75222;52.004;5.908;2024-01-11T09:15:55;-3.00;72.90
42037;DHT22;75222;52.004;5.908;2024-01-11T09:18:21;-2.90;72.80
42037;DHT22;75222;52.004;5.908;2024-01-11T09:20:47;-2.90;72.70
42037;DHT22;75222;52.004;5.908;2024-01-11T09:23:13;-2.80;72.70
42037;DHT22;75222;52.004;5.908;2024-01-11T09:25:39;-2.70;72.70
42037;DHT22;75222;52.004;5.908;2024-01-11T09:28:05;-2.70;72.60
42037;DHT22;75222;52.004;5.908;2024-01-11T09:30:31;-2.70;72.70
42037;DHT22;75222;52.004;5.908;2024-01-11T09:32:57;-2.70;72.70
42037;DHT22;75222;52.004;5.908;2024-01-11T09:35:22;-2.60;72.80
42037;DHT22;75222;52.004;5.908;2024-01-11T09:37:51;-2.60;72.80
42037;DHT22;75222;52.004;5.908;2024-01-11T09:40:17;-2.60;73.10
42037;DHT22;75222;52.004;5.908;2024-01-11T09:42:43;-2.60;73.10
42037;DHT22;75222;52.004;5.908;2024-01-11T09:45:13;-2.50;73.10
42037;DHT22;75222;52.004;5.908;2024-01-11T09:47:41;-2.50;73.10
42037;DHT22;75222;52.004;5.908;2024-01-11T09:50:07;-2.50;73.10
42037;DHT22;75222;52.004;5.908;2024-01-11T09:52:33;-2.40;73.10
42037;DHT22;75222;52.004;5.908;2024-01-11T09:55:01;-2.30;73.20
42037;DHT22;75222;52.004;5.908;2024-01-11T09:57:31;-2.30;73.20
42037;DHT22;75222;52.004;5.908;2024-01-11T10:00:03;-2.20;73.10
42037;DHT22;75222;52.004;5.908;2024-01-11T10:02:29;-2.10;73.00
42037;DHT22;75222;52.004;5.908;2024-01-11T10:04:55;-2.10;72.80
42037;DHT22;75222;52.004;5.908;2024-01-11T10:07:22;-2.00;72.80
42037;DHT22;75222;52.004;5.908;2024-01-11T10:09:48;-1.90;72.70
42037;DHT22;75222;52.004;5.908;2024-01-11T10:12:15;-1.80;72.70
42037;DHT22;75222;52.004;5.908;2024-01-11T10:14:40;-1.80;72.70
42037;DHT22;75222;52.004;5.908;2024-01-11T10:17:07;-1.70;72.70
42037;DHT22;75222;52.004;5.908;2024-01-11T10:19:32;-1.70;72.60
42037;DHT22;75222;52.004;5.908;2024-01-11T10:21:58;-1.60;72.70
42037;DHT22;75222;52.004;5.908;2024-01-11T10:24:26;-1.60;72.80
42037;DHT22;75222;52.004;5.908;2024-01-11T10:26:57;-1.60;72.80
42037;DHT22;75222;52.004;5.908;2024-01-11T10:29:31;-1.50;72.90
42037;DHT22;75222;52.004;5.908;2024-01-11T10:31:56;-1.50;73.80
42037;DHT22;75222;52.004;5.908;2024-01-11T10:34:23;-1.50;73.60
42037;DHT22;75222;52.004;5.908;2024-01-11T10:36:50;-1.50;73.80
42037;DHT22;75222;52.004;5.908;2024-01-11T10:39:17;-1.40;73.80
42037;DHT22;75222;52.004;5.908;2024-01-11T10:41:47;-1.30;75.20
42037;DHT22;75222;52.004;5.908;2024-01-11T10:44:20;-1.40;75.30
42037;DHT22;75222;52.004;5.908;2024-01-11T10:46:49;-1.30;75.30
42037;DHT22;75222;52.004;5.908;2024-01-11T10:49:18;-1.20;75.00
42037;DHT22;75222;52.004;5.908;2024-01-11T10:51:59;-1.20;74.90
42037;DHT22;75222;52.004;5.908;2024-01-11T10:54:27;-1.20;75.10
42037;DHT22;75222;52.004;5.908;2024-01-11T10:56:54;-1.10;75.60
42037;DHT22;75222;52.004;5.908;2024-01-11T10:59:21;-1.10;75.40
42037;DHT22;75222;52.004;5.908;2024-01-11T11:01:54;-1.00;75.40
42037;DHT22;75222;52.004;5.908;2024-01-11T11:04:24;-1.00;75.40
42037;DHT22;75222;52.004;5.908;2024-01-11T11:06:52;-0.90;75.50
42037;DHT22;75222;52.004;5.908;2024-01-11T11:09:20;-0.80;75.40
42037;DHT22;75222;52.004;5.908;2024-01-11T11:11:47;-0.80;75.40
42037;DHT22;75222;52.004;5.908;2024-01-11T11:14:15;-0.80;75.60
42037;DHT22;75222;52.004;5.908;2024-01-11T11:16:41;-0.70;75.90
42037;DHT22;75222;52.004;5.908;2024-01-11T11:19:07;-0.70;76.00
42037;DHT22;75222;52.004;5.908;2024-01-11T11:21:41;-0.60;76.00
42037;DHT22;75222;52.004;5.908;2024-01-11T11:24:06;-0.50;76.00
42037;DHT22;75222;52.004;5.908;2024-01-11T11:26:32;-0.40;76.00
42037;DHT22;75222;52.004;5.908;2024-01-11T11:28:58;-0.30;75.80
42037;DHT22;75222;52.004;5.908;2024-01-11T11:31:37;-0.20;75.70
42037;DHT22;75222;52.004;5.908;2024-01-11T11:34:06;-0.10;75.70
42037;DHT22;75222;52.004;5.908;2024-01-11T11:36:33;-0.10;75.70
42037;DHT22;75222;52.004;5.908;2024-01-11T11:39:00;-0.10;75.70
42037;DHT22;75222;52.004;5.908;2024-01-11T11:41:27;0.00;75.90
42037;DHT22;75222;52.004;5.908;2024-01-11T11:43:52;0.10;75.90
42037;DHT22;75222;52.004;5.908;2024-01-11T11:46:19;0.20;75.80
42037;DHT22;75222;52.004;5.908;2024-01-11T11:48:49;0.20;75.70
42037;DHT22;75222;52.004;5.908;2024-01-11T11:51:17;0.30;75.90
42037;DHT22;75222;52.004;5.908;2024-01-11T11:53:45;0.30;76.50
42037;DHT22;75222;52.004;5.908;2024-01-11T11:56:12;0.30;75.90
42037;DHT22;75222;52.004;5.908;2024-01-11T11:58:40;0.40;76.00
42037;DHT22;75222;52.004;5.908;2024-01-11T12:01:06;0.40;76.10
42037;DHT22;75222;52.004;5.908;2024-01-11T12:03:33;0.40;76.30
42037;DHT22;75222;52.004;5.908;2024-01-11T12:05:59;0.40;76.80
42037;DHT22;75222;52.004;5.908;2024-01-11T12:08:25;0.50;76.80
42037;DHT22;75222;52.004;5.908;2024-01-11T12:10:51;0.60;76.70
42037;DHT22;75222;52.004;5.908;2024-01-11T12:13:21;0.60;76.50
42037;DHT22;75222;52.004;5.908;2024-01-11T12:15:47;0.70;76.50
42037;DHT22;75222;52.004;5.908;2024-01-11T12:18:12;0.70;76.60
42037;DHT22;75222;52.004;5.908;2024-01-11T12:20:38;0.70;76.50
42037;DHT22;75222;52.004;5.908;2024-01-11T12:23:04;0.80;76.60
42037;DHT22;75222;52.004;5.908;2024-01-11T12:25:30;0.80;76.80
42037;DHT22;75222;52.004;5.908;2024-01-11T12:27:57;0.80;76.70
42037;DHT22;75222;52.004;5.908;2024-01-11T12:30:23;0.80;76.80
42037;DHT22;75222;52.004;5.908;2024-01-11T12:32:55;0.90;76.80
42037;DHT22;75222;52.004;5.908;2024-01-11T12:35:22;1.00;76.80
42037;DHT22;75222;52.004;5.908;2024-01-11T12:38:01;1.10;76.70
42037;DHT22;75222;52.004;5.908;2024-01-11T12:40:28;1.10;76.60
42037;DHT22;75222;52.004;5.908;2024-01-11T12:42:53;1.10;76.90
42037;DHT22;75222;52.004;5.908;2024-01-11T12:45:20;1.20;76.80
42037;DHT22;75222;52.004;5.908;2024-01-11T12:47:46;1.20;76.80
42037;DHT22;75222;52.004;5.908;2024-01-11T12:50:12;1.20;77.00
42037;DHT22;75222;52.004;5.908;2024-01-11T12:52:40;1.20;77.00
42037;DHT22;75222;52.004;5.908;2024-01-11T12:55:08;1.30;77.20
42037;DHT22;75222;52.004;5.908;2024-01-11T12:57:43;1.20;77.60
42037;DHT22;75222;52.004;5.908;2024-01-11T13:00:10;1.30;77.50
42037;DHT22;75222;52.004;5.908;2024-01-11T13:02:36;1.30;77.70
42037;DHT22;75222;52.004;5.908;2024-01-11T13:05:05;1.30;77.80
42037;DHT22;75222;52.004;5.908;2024-01-11T13:07:31;1.40;77.80
42037;DHT22;75222;52.004;5.908;2024-01-11T13:09:57;1.40;77.60
42037;DHT22;75222;52.004;5.908;2024-01-11T13:12:23;1.50;78.20
42037;DHT22;75222;52.004;5.908;2024-01-11T13:14:48;1.70;77.50
42037;DHT22;75222;52.004;5.908;2024-01-11T13:17:16;1.70;77.40
42037;DHT22;75222;52.004;5.908;2024-01-11T13:19:42;1.80;77.30
42037;DHT22;75222;52.004;5.908;2024-01-11T13:22:07;1.80;77.20
42037;DHT22;75222;52.004;5.908;2024-01-11T13:24:33;1.90;77.20
42037;DHT22;75222;52.004;5.908;2024-01-11T13:26:58;1.90;77.20
42037;DHT22;75222;52.004;5.908;2024-01-11T13:29:24;2.00;77.10
42037;DHT22;75222;52.004;5.908;2024-01-11T13:31:50;2.00;77.10
42037;DHT22;75222;52.004;5.908;2024-01-11T13:34:16;2.10;77.10
42037;DHT22;75222;52.004;5.908;2024-01-11T13:36:41;2.20;77.10
42037;DHT22;75222;52.004;5.908;2024-01-11T13:39:07;2.20;77.00
42037;DHT22;75222;52.004;5.908;2024-01-11T13:41:36;2.20;76.90
42037;DHT22;75222;52.004;5.908;2024-01-11T13:44:01;2.30;76.90
42037;DHT22;75222;52.004;5.908;2024-01-11T13:46:27;2.30;76.90
42037;DHT22;75222;52.004;5.908;2024-01-11T13:48:52;2.30;77.10
42037;DHT22;75222;52.004;5.908;2024-01-11T13:51:18;2.30;77.10
42037;DHT22;75222;52.004;5.908;2024-01-11T13:53:44;2.30;77.20
42037;DHT22;75222;52.004;5.908;2024-01-11T13:56:09;2.30;77.10
42037;DHT22;75222;52.004;5.908;2024-01-11T13:58:36;2.30;77.20
42037;DHT22;75222;52.004;5.908;2024-01-11T14:01:01;2.30;77.30
42037;DHT22;75222;52.004;5.908;2024-01-11T14:03:27;2.20;77.40
42037;DHT22;75222;52.004;5.908;2024-01-11T14:05:53;2.20;77.40
42037;DHT22;75222;52.004;5.908;2024-01-11T14:08:18;2.20;77.50
42037;DHT22;75222;52.004;5.908;2024-01-11T14:10:44;2.20;77.80
42037;DHT22;75222;52.004;5.908;2024-01-11T14:13:09;2.10;78.30
42037;DHT22;75222;52.004;5.908;2024-01-11T14:15:35;2.10;78.50
42037;DHT22;75222;52.004;5.908;2024-01-11T14:18:00;2.10;78.60
42037;DHT22;75222;52.004;5.908;2024-01-11T14:20:26;2.10;78.50
42037;DHT22;75222;52.004;5.908;2024-01-11T14:22:52;2.10;78.50
42037;DHT22;75222;52.004;5.908;2024-01-11T14:25:20;2.10;79.40
42037;DHT22;75222;52.004;5.908;2024-01-11T14:27:47;2.00;78.90
42037;DHT22;75222;52.004;5.908;2024-01-11T14:30:14;2.00;79.00
42037;DHT22;75222;52.004;5.908;2024-01-11T14:32:39;2.10;79.00
42037;DHT22;75222;52.004;5.908;2024-01-11T14:35:06;2.10;79.00
42037;DHT22;75222;52.004;5.908;2024-01-11T14:37:33;2.10;79.00
42037;DHT22;75222;52.004;5.908;2024-01-11T14:39:59;2.00;79.00
42037;DHT22;75222;52.004;5.908;2024-01-11T14:42:25;2.10;79.10
42037;DHT22;75222;52.004;5.908;2024-01-11T14:44:51;2.10;79.00
42037;DHT22;75222;52.004;5.908;2024-01-11T14:47:17;2.10;79.00
42037;DHT22;75222;52.004;5.908;2024-01-11T14:49:43;2.20;79.10
42037;DHT22;75222;52.004;5.908;2024-01-11T14:52:09;2.10;79.10
42037;DHT22;75222;52.004;5.908;2024-01-11T14:54:38;2.10;79.30
42037;DHT22;75222;52.004;5.908;2024-01-11T14:57:04;2.10;79.30
42037;DHT22;75222;52.004;5.908;2024-01-11T14:59:33;2.10;79.40
42037;DHT22;75222;52.004;5.908;2024-01-11T15:02:00;2.10;79.70
42037;DHT22;75222;52.004;5.908;2024-01-11T15:04:25;2.10;79.70
42037;DHT22;75222;52.004;5.908;2024-01-11T15:06:51;2.10;79.70
42037;DHT22;75222;52.004;5.908;2024-01-11T15:09:17;2.10;79.60
42037;DHT22;75222;52.004;5.908;2024-01-11T15:11:43;2.10;79.60
42037;DHT22;75222;52.004;5.908;2024-01-11T15:14:09;2.10;79.60
42037;DHT22;75222;52.004;5.908;2024-01-11T15:16:36;2.20;79.60
42037;DHT22;75222;52.004;5.908;2024-01-11T15:19:02;2.00;79.50
42037;DHT22;75222;52.004;5.908;2024-01-11T15:21:29;2.10;79.60
42037;DHT22;75222;52.004;5.908;2024-01-11T15:23:55;2.20;79.70
42037;DHT22;75222;52.004;5.908;2024-01-11T15:26:20;2.10;79.70
42037;DHT22;75222;52.004;5.908;2024-01-11T15:28:46;2.20;79.90